LDPL/PUY METAR and TAF weather

Enter ICAO airport designator
Station Type Date Time Source
LDPL METAR 2022/01/27 22:30 UTC NOAA

LDPL 272230Z 01003KT 340V060 5000 BR FEW012 BKN020 02/01 Q1024


Station Type Date Time Source
LDPL Decoded METAR 2022/01/27 22:30 UTC NOAA

Pula Aerodrome, Croatia (LDPL) 45-54N 013-55E 63M
Jan 27, 2022 - 05:30 PM EST / 2022.01.27 2230 UTC
Wind: from the N (010 degrees) at 3 MPH (3 KT) (direction variable):0
Visibility: 3 mile(s):0
Sky conditions: mostly cloudy
Weather: mist
Temperature: 35 F (2 C)
Dew Point: 33 F (1 C)
Relative Humidity: 93%
Pressure (altimeter): 30.24 in. Hg (1024 hPa)
ob: LDPL 272230Z 01003KT 340V060 5000 BR FEW012 BKN020 02/01 Q1024
cycle: 22

Station Type Date Time Source
LDPL TAF 2022/01/27 18:27 UTC NOAA

TAF LDPL 271725Z 2718/2818 VRB02KT 9999 BKN017 OVC020 TX10/2813Z TN02/2722Z PROB40
TEMPO 2718/2809 3000 BR BKN010
BECMG 2811/2813 30008KT
BECMG 2816/2818 06008KT

Example: see airport list